Buchanan Airport

Jump to: basic info | weather | comments

Related pages: nearby airports | nearby navaids | notams | map

Basic information (top)

Codes: UCN GLBU
Location: lon 5.167650, lat -9.283470, elev 41 ft / 12 m msl
Status: small_airport
Scheduled airline service: no
Links: Wikipedia Mobile

Weather (top)

Current conditions for Roberts International Airport 91nm (168km) NW (rec'd 2014/12/23 00:30Z):

GLRB 230030Z 00000KT 8000 FEW012 24/23 Q1013 RMK BRVC

Airport forecast for Roberts International Airport 91nm (168km) NW (rec'd 2014/12/22 00:51Z):

TAF GLRB 222200Z 2300/2406 02004KT 8000 SCT016 SCT016 
      BECMG 2302/2304 00000KT 4000 BR SCT013 
      TEMPO 2305/2310 24006KT 9000 SCT016

Latest comments (top)

No comments yet for Buchanan Airport

More... (top)

See also NOTAMs and nearby airports and navaids, or visit the Buchanan Airport page at the main OurAirports website..